Time;durP1;ratioP1;P1;durP2;ratioP2;P2;SDS_P1;SDS_P2;PMS_P1;PMS_P2;Temp;Humidity;BMP_temperature;BMP_pressure;BME280_temperature;BME280_humidity;BME280_pressure;Samples;Min_cycle;Max_cycle;Signal;HPM_P1;HPM_P2
2023/09/17 00:09:37;;;;;;;15.40;13.40;;;;;;;13.96;78.45;99744.02;435572;1253;141471;-63
2023/09/17 00:19:43;;;;;;;17.40;13.50;;;;;;;13.87;79.07;99743.59;435347;1254;141033;-64
2023/09/17 00:29:49;;;;;;;15.80;14.10;;;;;;;13.81;79.80;99739.73;435242;1252;142555;-64
2023/09/17 00:39:55;;;;;;;15.40;13.50;;;;;;;13.74;80.53;99731.23;435751;1256;139973;-65
2023/09/17 00:50:02;;;;;;;15.50;13.20;;;;;;;13.67;81.21;99721.33;436001;1254;140310;-67
2023/09/17 01:00:11;;;;;;;15.40;13.80;;;;;;;13.60;81.85;99716.96;435974;1256;140825;-64
2023/09/17 01:10:17;;;;;;;15.20;13.60;;;;;;;13.53;82.24;99717.66;435880;1256;140459;-64
2023/09/17 01:20:29;;;;;;;16.80;13.90;;;;;;;13.47;82.80;99712.14;436001;1253;140071;-64
2023/09/17 01:30:37;;;;;;;18.50;13.50;;;;;;;13.39;83.21;99707.61;435739;1254;139283;-64
2023/09/17 01:40:44;;;;;;;16.30;12.50;;;;;;;13.32;83.75;99699.81;435122;1256;140267;-64
2023/09/17 01:50:51;;;;;;;14.90;12.50;;;;;;;13.25;84.25;99692.75;435983;1255;140789;-63
2023/09/17 02:00:57;;;;;;;16.20;12.80;;;;;;;13.22;84.93;99692.48;435486;1256;139944;-63
2023/09/17 02:11:05;;;;;;;12.90;11.50;;;;;;;13.19;85.52;99691.98;437647;1253;140394;-63
2023/09/17 02:21:10;;;;;;;;;;;;;;;13.12;85.88;99686.34;435516;1253;141422;-62
2023/09/17 02:31:15;;;;;;;16.90;13.80;;;;;;;13.05;86.32;99687.39;435145;1253;125305;-64
2023/09/17 02:41:21;;;;;;;17.10;13.00;;;;;;;13.00;86.82;99685.42;435448;1253;140191;-63
2023/09/17 02:51:28;;;;;;;15.20;12.70;;;;;;;12.96;87.25;99675.20;435410;1257;141148;-63
2023/09/17 03:01:35;;;;;;;15.70;13.30;;;;;;;12.93;87.75;99672.73;436247;1254;139347;-63
2023/09/17 03:11:41;;;;;;;15.20;13.50;;;;;;;12.91;88.22;99664.83;435339;1254;139510;-63
2023/09/17 03:21:47;;;;;;;14.10;12.10;;;;;;;12.87;88.67;99664.73;435579;1257;139788;-63
2023/09/17 03:31:53;;;;;;;13.20;11.80;;;;;;;12.83;89.04;99659.80;435501;1257;139268;-63
2023/09/17 03:41:59;;;;;;;15.40;13.10;;;;;;;12.79;89.59;99660.23;435705;1254;139253;-64
2023/09/17 03:52:07;;;;;;;14.60;12.20;;;;;;;12.74;89.89;99658.98;435284;1254;139846;-64
2023/09/17 04:02:12;;;;;;;17.70;12.90;;;;;;;12.66;90.32;99658.50;436304;1259;141367;-64
2023/09/17 04:12:18;;;;;;;12.30;10.60;;;;;;;12.61;90.70;99655.52;435397;1256;141770;-63
2023/09/17 04:22:24;;;;;;;16.20;13.90;;;;;;;12.63;91.33;99658.54;435200;1257;140265;-64
2023/09/17 04:32:31;;;;;;;15.20;12.00;;;;;;;12.82;91.98;99654.91;435310;1256;139512;-64
2023/09/17 04:42:37;;;;;;;16.00;13.50;;;;;;;13.15;92.18;99656.92;435261;1257;140145;-61
2023/09/17 04:52:43;;;;;;;14.30;12.90;;;;;;;13.56;91.99;99670.42;435303;1257;139515;-62
2023/09/17 05:02:49;;;;;;;14.50;12.30;;;;;;;13.98;91.50;99670.67;435188;1257;140846;-62
2023/09/17 05:12:56;;;;;;;13.80;12.00;;;;;;;14.50;91.08;99675.11;435524;1256;140630;-63
2023/09/17 05:23:03;;;;;;;12.60;10.60;;;;;;;15.34;90.20;99681.09;435548;1257;141626;-64
2023/09/17 05:33:09;;;;;;;12.40;11.00;;;;;;;16.87;88.32;99685.78;435357;1254;139303;-64
2023/09/17 05:43:15;;;;;;;11.30;9.90;;;;;;;20.64;86.68;99687.00;435957;1257;139730;-64
2023/09/17 05:53:21;;;;;;;9.20;8.30;;;;;;;24.77;75.46;99699.10;435208;1258;139366;-64
2023/09/17 06:03:26;;;;;;;9.50;8.60;;;;;;;28.02;64.94;99697.69;435197;1257;139582;-64
2023/09/17 06:13:33;;;;;;;8.50;7.70;;;;;;;31.04;57.24;99704.02;435208;1258;139410;-65
2023/09/17 06:23:39;;;;;;;8.00;7.20;;;;;;;33.10;49.95;99711.03;435174;1258;138747;-65
2023/09/17 06:33:44;;;;;;;8.50;7.70;;;;;;;34.50;45.15;99718.63;434961;1257;138700;-66
2023/09/17 06:43:50;;;;;;;8.90;8.10;;;;;;;33.71;42.34;99716.49;435189;1254;143764;-65
2023/09/17 06:53:56;;;;;;;7.50;6.90;;;;;;;34.98;41.73;99714.82;435267;1254;138860;-65
2023/09/17 07:04:02;;;;;;;7.00;6.30;;;;;;;38.13;38.83;99718.91;435110;1256;138843;-66
2023/09/17 07:14:10;;;;;;;6.80;6.20;;;;;;;41.12;35.45;99717.34;435291;1257;138229;-66
2023/09/17 07:24:16;;;;;;;6.60;6.00;;;;;;;43.38;32.23;99719.57;434588;1254;158510;-66
2023/09/17 07:34:23;;;;;;;6.10;5.50;;;;;;;45.50;29.87;99715.81;435102;1256;139349;-66
2023/09/17 07:44:29;;;;;;;5.10;4.60;;;;;;;46.99;27.35;99717.14;435107;1257;138375;-66
2023/09/17 07:54:40;;;;;;;7.80;7.00;;;;;;;44.45;25.74;99711.56;435307;1254;138287;-66
2023/09/17 08:04:45;;;;;;;6.00;5.10;;;;;;;39.15;27.78;99711.15;435277;1256;139461;-65
2023/09/17 08:14:53;;;;;;;5.10;4.60;;;;;;;35.53;30.87;99707.91;435212;1254;138533;-69
2023/09/17 08:24:59;;;;;;;5.60;4.70;;;;;;;33.30;33.32;99706.42;435707;1254;138431;-71
2023/09/17 08:35:06;;;;;;;5.60;4.40;;;;;;;31.51;35.71;99708.84;435248;1254;139859;-70
2023/09/17 08:45:13;;;;;;;3.50;3.00;;;;;;;30.30;37.50;99704.21;435840;1254;139016;-71
2023/09/17 08:55:20;;;;;;;5.00;3.40;;;;;;;29.78;38.96;99701.00;436080;1254;138501;-69
2023/09/17 09:05:27;;;;;;;6.40;4.20;;;;;;;29.48;39.83;99693.81;435428;1253;138518;-69
2023/09/17 09:15:33;;;;;;;4.20;3.80;;;;;;;29.04;40.65;99694.14;435188;1254;138462;-69
2023/09/17 09:25:40;;;;;;;4.60;3.60;;;;;;;28.94;41.53;99692.13;435241;1257;138420;-69
2023/09/17 09:35:46;;;;;;;3.90;3.60;;;;;;;29.19;41.56;99694.92;435072;1254;139261;-70
2023/09/17 09:45:53;;;;;;;7.00;4.00;;;;;;;28.88;41.64;99681.31;435561;1256;140596;-71
2023/09/17 09:55:59;;;;;;;3.40;3.10;;;;;;;28.33;42.65;99679.43;435902;1254;138454;-69
2023/09/17 10:06:07;;;;;;;4.30;3.50;;;;;;;28.01;43.66;99671.20;435595;1253;139055;-69
2023/09/17 10:16:14;;;;;;;6.20;3.40;;;;;;;27.86;44.20;99668.41;436061;1256;140413;-65
2023/09/17 10:26:22;;;;;;;3.80;2.90;;;;;;;27.60;44.69;99671.05;436153;1254;138355;-66
2023/09/17 10:36:31;;;;;;;3.80;2.70;;;;;;;27.28;45.20;99677.84;436321;1256;140592;-64
2023/09/17 10:46:37;;;;;;;3.60;3.30;;;;;;;27.17;45.60;99677.14;436049;1254;140128;-65
2023/09/17 10:56:45;;;;;;;3.50;3.10;;;;;;;27.29;45.73;99674.20;435883;1256;138391;-67
2023/09/17 11:06:53;;;;;;;3.30;2.80;;;;;;;27.33;45.16;99668.98;435894;1253;138913;-67
2023/09/17 11:17:00;;;;;;;4.00;2.20;;;;;;;27.10;45.21;99667.55;435685;1256;138599;-66
2023/09/17 11:27:07;;;;;;;;;;;;;;;26.93;44.70;99664.77;435522;1254;140539;-65
2023/09/17 11:37:15;;;;;;;3.20;2.10;;;;;;;26.75;45.04;99665.17;435735;1254;125079;-66
2023/09/17 11:47:21;;;;;;;3.00;2.50;;;;;;;26.50;45.04;99661.45;435430;1256;138797;-66
2023/09/17 11:57:28;;;;;;;2.80;2.60;;;;;;;26.18;45.42;99661.34;435527;1254;140374;-66
2023/09/17 12:07:35;;;;;;;2.40;1.80;;;;;;;26.19;45.16;99656.91;435778;1254;138520;-65
2023/09/17 12:18:00;;;;;;;2.20;2.10;;;;;;;26.20;45.06;99654.08;435740;1254;139915;-66
2023/09/17 12:28:07;;;;;;;2.50;2.30;;;;;;;26.19;45.13;99652.77;436056;1256;138938;-64
2023/09/17 12:38:13;;;;;;;2.80;2.10;;;;;;;26.26;44.81;99641.89;436177;1252;138223;-66
2023/09/17 12:48:20;;;;;;;3.70;2.00;;;;;;;26.44;44.81;99638.11;435989;1254;140434;-66
2023/09/17 12:58:26;;;;;;;3.70;2.10;;;;;;;26.58;44.50;99640.80;436029;1254;138129;-67
2023/09/17 13:08:32;;;;;;;2.20;2.00;;;;;;;26.58;44.19;99637.33;436058;1256;139389;-66
2023/09/17 13:18:38;;;;;;;2.40;2.20;;;;;;;26.78;44.19;99634.23;435791;1254;138550;-67
2023/09/17 13:28:44;;;;;;;2.90;2.50;;;;;;;27.04;44.04;99622.89;436277;1253;139037;-65
2023/09/17 13:38:50;;;;;;;2.50;1.70;;;;;;;27.16;43.66;99619.30;436273;1256;138906;-63
2023/09/17 13:48:57;;;;;;;3.70;2.10;;;;;;;27.31;43.12;99617.72;436591;1253;138324;-64
2023/09/17 13:59:04;;;;;;;3.60;1.90;;;;;;;27.35;43.38;99618.91;436116;1256;139348;-64
2023/09/17 14:09:10;;;;;;;2.20;2.00;;;;;;;27.22;43.31;99621.04;436196;1253;139154;-64
2023/09/17 14:19:17;;;;;;;2.10;2.00;;;;;;;26.81;43.23;99616.80;436024;1256;138501;-63
2023/09/17 14:29:24;;;;;;;2.90;2.70;;;;;;;26.41;43.83;99621.61;435828;1253;139385;-61
2023/09/17 14:39:30;;;;;;;2.90;1.80;;;;;;;26.10;44.52;99625.65;435886;1256;139571;-65
2023/09/17 14:49:36;;;;;;;2.30;2.00;;;;;;;25.85;45.19;99631.80;436051;1256;138657;-67
2023/09/17 14:59:42;;;;;;;2.70;2.20;;;;;;;25.62;45.55;99629.19;436009;1256;139286;-63
2023/09/17 15:09:48;;;;;;;2.70;2.50;;;;;;;25.36;46.25;99635.99;437478;1253;139316;-64
2023/09/17 15:19:53;;;;;;;3.40;3.00;;;;;;;25.00;47.18;99632.88;436136;1256;138290;-63
2023/09/17 15:29:59;;;;;;;5.70;2.70;;;;;;;24.63;48.22;99625.62;435596;1252;138536;-64
2023/09/17 15:40:07;;;;;;;4.40;2.40;;;;;;;24.40;49.18;99629.60;435647;1253;138773;-62
2023/09/17 15:50:13;;;;;;;3.00;2.60;;;;;;;24.17;49.98;99628.16;436121;1254;139557;-64
2023/09/17 16:00:19;;;;;;;3.60;2.70;;;;;;;23.92;50.72;99628.05;435702;1256;139579;-63
2023/09/17 16:10:25;;;;;;;4.10;2.50;;;;;;;23.72;51.49;99628.71;435385;1256;138861;-61
2023/09/17 16:20:31;;;;;;;3.80;3.40;;;;;;;23.55;52.27;99629.82;435661;1257;138359;-62
2023/09/17 16:30:37;;;;;;;8.00;4.40;;;;;;;23.41;52.73;99634.06;435125;1253;138872;-61
2023/09/17 16:40:44;;;;;;;5.30;4.10;;;;;;;23.29;53.32;99638.15;435437;1253;138452;-60
2023/09/17 16:50:51;;;;;;;3.70;3.20;;;;;;;23.11;53.85;99641.16;435456;1256;138297;-58
2023/09/17 17:00:57;;;;;;;4.00;3.50;;;;;;;22.80;54.49;99642.34;435560;1257;139990;-58
2023/09/17 17:11:03;;;;;;;6.10;3.90;;;;;;;22.44;55.52;99644.09;435334;1252;138847;-60
2023/09/17 17:21:09;;;;;;;3.80;3.20;;;;;;;22.06;56.57;99648.85;435303;1256;138822;-59
2023/09/17 17:31:15;;;;;;;4.00;2.60;;;;;;;21.74;57.35;99659.29;435562;1253;138723;-61
2023/09/17 17:41:21;;;;;;;4.30;4.00;;;;;;;21.46;58.12;99656.11;436432;1253;138489;-60
2023/09/17 17:51:27;;;;;;;4.70;4.00;;;;;;;21.19;58.96;99653.45;435708;1251;139433;-62
2023/09/17 18:01:33;;;;;;;3.60;3.30;;;;;;;20.95;59.66;99650.30;435864;1253;138514;-61
2023/09/17 18:11:39;;;;;;;4.90;3.30;;;;;;;20.74;60.44;99653.94;435778;1253;139031;-62
2023/09/17 18:21:45;;;;;;;4.70;3.70;;;;;;;20.53;61.02;99661.14;435932;1256;139220;-63
2023/09/17 18:31:51;;;;;;;4.10;3.60;;;;;;;20.34;61.70;99662.37;436667;1256;139259;-64
2023/09/17 18:41:57;;;;;;;5.60;3.30;;;;;;;20.16;62.42;99670.05;435483;1254;140441;-62
2023/09/17 18:52:03;;;;;;;3.50;3.20;;;;;;;19.99;63.02;99678.73;435617;1254;139517;-63
2023/09/17 19:02:09;;;;;;;4.50;4.10;;;;;;;19.78;63.85;99677.33;435587;1253;138905;-62
2023/09/17 19:12:14;;;;;;;5.20;4.50;;;;;;;19.53;64.76;99677.31;435340;1253;141087;-62
2023/09/17 19:22:20;;;;;;;6.90;4.30;;;;;;;19.32;65.38;99680.79;435576;1256;139988;-62
2023/09/17 19:32:26;;;;;;;6.00;4.50;;;;;;;19.15;65.97;99684.79;435420;1253;140071;-63
2023/09/17 19:42:32;;;;;;;10.40;6.50;;;;;;;18.92;66.84;99678.98;435548;1257;138920;-63
2023/09/17 19:52:38;;;;;;;9.70;7.10;;;;;;;18.74;67.60;99674.86;436098;1257;139996;-63
2023/09/17 20:02:44;;;;;;;10.60;6.30;;;;;;;18.57;68.30;99669.41;435487;1253;139135;-61
2023/09/17 20:12:50;;;;;;;9.90;4.80;;;;;;;18.41;68.96;99659.92;436133;1254;139232;-64
2023/09/17 20:22:56;;;;;;;9.00;6.60;;;;;;;18.31;69.57;99657.55;435842;1254;139336;-62
2023/09/17 20:33:02;;;;;;;5.80;5.20;;;;;;;18.19;70.00;99651.16;435721;1253;140876;-62
2023/09/17 20:43:08;;;;;;;6.80;5.20;;;;;;;18.07;70.37;99650.37;436073;1253;139651;-60
2023/09/17 20:53:14;;;;;;;9.30;5.30;;;;;;;17.99;71.05;99649.20;436045;1254;140446;-62
2023/09/17 21:03:20;;;;;;;5.70;4.40;;;;;;;17.85;71.44;99646.89;435737;1256;139329;-61
2023/09/17 21:13:27;;;;;;;6.50;5.50;;;;;;;17.76;72.01;99641.38;435891;1256;141037;-63
2023/09/17 21:23:35;;;;;;;6.00;4.90;;;;;;;17.66;72.64;99637.33;436863;1253;140715;-62
2023/09/17 21:33:41;;;;;;;9.40;5.90;;;;;;;17.59;73.19;99629.29;436045;1254;138937;-61
2023/09/17 21:43:47;;;;;;;5.60;5.10;;;;;;;17.50;73.48;99633.47;435923;1256;140082;-62
2023/09/17 21:53:53;;;;;;;5.60;5.00;;;;;;;17.34;73.87;99633.41;435553;1254;139010;-62
2023/09/17 22:03:58;;;;;;;6.80;5.70;;;;;;;17.17;74.59;99631.85;435322;1256;141645;-62
2023/09/17 22:14:04;;;;;;;7.60;5.90;;;;;;;17.01;75.42;99617.35;435573;1256;140651;-63
2023/09/17 22:24:11;;;;;;;7.20;6.50;;;;;;;16.90;75.92;99619.59;435835;1256;139811;-63
2023/09/17 22:34:17;;;;;;;8.10;5.60;;;;;;;16.80;76.58;99620.48;436123;1256;139311;-63
2023/09/17 22:44:23;;;;;;;8.00;6.90;;;;;;;16.71;77.22;99618.98;435644;1254;139016;-62
2023/09/17 22:54:30;;;;;;;7.70;7.00;;;;;;;16.62;77.74;99617.30;435683;1256;139527;-62
2023/09/17 23:04:36;;;;;;;8.00;6.60;;;;;;;16.53;78.26;99611.02;435487;1256;141310;-61
2023/09/17 23:14:42;;;;;;;7.80;7.00;;;;;;;16.42;78.96;99604.59;437896;1256;139485;-63
2023/09/17 23:24:48;;;;;;;9.20;8.30;;;;;;;16.34;79.82;99601.71;435858;1256;139610;-63
2023/09/17 23:34:55;;;;;;;8.80;8.00;;;;;;;16.31;80.50;99593.48;435442;1256;139722;-63
2023/09/17 23:45:01;;;;;;;10.60;8.20;;;;;;;16.25;81.11;99602.02;436110;1256;139967;-63
2023/09/17 23:55:09;;;;;;;12.20;8.10;;;;;;;16.17;81.53;99604.10;435203;1256;140156;-63
